sensor_id;sensor_type;location;lat;lon;timestamp;pressure;altitude;pressure_sealevel;temperature;humidity
47522;BME280;32291;52.010;4.446;2023-10-31T00:00:11;77135.88;;;-144.67;100.00
47522;BME280;32291;52.010;4.446;2023-10-31T00:01:13;77140.16;;;-144.67;100.00
47522;BME280;32291;52.010;4.446;2023-10-31T00:02:14;77135.88;;;-144.67;100.00
47522;BME280;32291;52.010;4.446;2023-10-31T00:03:16;77135.88;;;-144.67;100.00
47522;BME280;32291;52.010;4.446;2023-10-31T00:04:17;77138.03;;;-144.67;100.00
47522;BME280;32291;52.010;4.446;2023-10-31T00:05:19;77131.59;;;-144.67;100.00
47522;BME280;32291;52.010;4.446;2023-10-31T00:06:20;77135.88;;;-144.67;100.00
47522;BME280;32291;52.010;4.446;2023-10-31T00:07:22;77135.88;;;-144.67;100.00
47522;BME280;32291;52.010;4.446;2023-10-31T00:08:23;77129.47;;;-144.67;100.00
47522;BME280;32291;52.010;4.446;2023-10-31T00:09:25;77138.03;;;-144.67;100.00
47522;BME280;32291;52.010;4.446;2023-10-31T00:10:27;77142.28;;;-144.67;100.00
47522;BME280;32291;52.010;4.446;2023-10-31T00:11:28;77140.16;;;-144.67;100.00
47522;BME280;32291;52.010;4.446;2023-10-31T00:12:30;77135.88;;;-144.67;100.00
47522;BME280;32291;52.010;4.446;2023-10-31T00:13:31;77138.03;;;-144.67;100.00
47522;BME280;32291;52.010;4.446;2023-10-31T00:14:33;77125.19;;;-144.67;100.00
47522;BME280;32291;52.010;4.446;2023-10-31T00:15:34;77129.47;;;-144.67;100.00
47522;BME280;32291;52.010;4.446;2023-10-31T00:16:36;77127.31;;;-144.67;100.00
47522;BME280;32291;52.010;4.446;2023-10-31T00:17:37;77127.31;;;-144.67;100.00
47522;BME280;32291;52.010;4.446;2023-10-31T00:18:39;77127.31;;;-144.67;100.00
47522;BME280;32291;52.010;4.446;2023-10-31T00:19:41;77127.31;;;-144.67;100.00
47522;BME280;32291;52.010;4.446;2023-10-31T00:20:43;77127.31;;;-144.67;100.00
47522;BME280;32291;52.010;4.446;2023-10-31T00:21:44;77131.59;;;-144.67;100.00
47522;BME280;32291;52.010;4.446;2023-10-31T00:22:46;77131.59;;;-144.67;100.00
47522;BME280;32291;52.010;4.446;2023-10-31T00:23:48;77135.88;;;-144.67;100.00
47522;BME280;32291;52.010;4.446;2023-10-31T00:24:50;77123.03;;;-144.67;100.00
47522;BME280;32291;52.010;4.446;2023-10-31T00:25:51;77129.47;;;-144.67;100.00
47522;BME280;32291;52.010;4.446;2023-10-31T00:26:53;77131.59;;;-144.67;100.00
47522;BME280;32291;52.010;4.446;2023-10-31T00:27:54;77135.88;;;-144.67;100.00
47522;BME280;32291;52.010;4.446;2023-10-31T00:28:56;77129.47;;;-144.67;100.00
47522;BME280;32291;52.010;4.446;2023-10-31T00:29:58;77129.47;;;-144.67;100.00
47522;BME280;32291;52.010;4.446;2023-10-31T00:30:59;77140.16;;;-144.67;100.00
47522;BME280;32291;52.010;4.446;2023-10-31T00:32:02;77138.03;;;-144.67;100.00
47522;BME280;32291;52.010;4.446;2023-10-31T00:33:03;77138.03;;;-144.67;100.00
47522;BME280;32291;52.010;4.446;2023-10-31T00:34:05;77138.03;;;-144.67;100.00
47522;BME280;32291;52.010;4.446;2023-10-31T00:35:07;77140.16;;;-144.67;100.00
47522;BME280;32291;52.010;4.446;2023-10-31T00:36:09;77131.59;;;-144.67;100.00
47522;BME280;32291;52.010;4.446;2023-10-31T00:37:11;77133.72;;;-144.67;100.00
47522;BME280;32291;52.010;4.446;2023-10-31T00:38:12;77131.59;;;-144.67;100.00
47522;BME280;32291;52.010;4.446;2023-10-31T00:39:14;77131.59;;;-144.67;100.00
47522;BME280;32291;52.010;4.446;2023-10-31T00:40:15;77127.31;;;-144.67;100.00
47522;BME280;32291;52.010;4.446;2023-10-31T00:41:17;77135.88;;;-144.67;100.00
47522;BME280;32291;52.010;4.446;2023-10-31T00:42:19;77138.03;;;-144.67;100.00
47522;BME280;32291;52.010;4.446;2023-10-31T00:43:21;77140.16;;;-144.67;100.00
47522;BME280;32291;52.010;4.446;2023-10-31T00:44:22;77140.16;;;-144.67;100.00
47522;BME280;32291;52.010;4.446;2023-10-31T00:45:24;77138.03;;;-144.67;100.00
47522;BME280;32291;52.010;4.446;2023-10-31T00:46:25;77135.88;;;-144.67;100.00
47522;BME280;32291;52.010;4.446;2023-10-31T00:47:27;77140.16;;;-144.67;100.00
47522;BME280;32291;52.010;4.446;2023-10-31T00:48:28;77135.88;;;-144.67;100.00
47522;BME280;32291;52.010;4.446;2023-10-31T00:49:30;77144.44;;;-144.67;100.00
47522;BME280;32291;52.010;4.446;2023-10-31T00:50:31;77140.16;;;-144.67;100.00
47522;BME280;32291;52.010;4.446;2023-10-31T00:51:33;77144.44;;;-144.67;100.00
47522;BME280;32291;52.010;4.446;2023-10-31T00:52:35;77135.88;;;-144.67;100.00
47522;BME280;32291;52.010;4.446;2023-10-31T00:53:36;77140.16;;;-144.67;100.00
47522;BME280;32291;52.010;4.446;2023-10-31T00:54:38;77131.59;;;-144.67;100.00
47522;BME280;32291;52.010;4.446;2023-10-31T00:55:40;77135.88;;;-144.67;100.00
47522;BME280;32291;52.010;4.446;2023-10-31T00:56:45;77135.88;;;-144.67;100.00
47522;BME280;32291;52.010;4.446;2023-10-31T00:57:47;77135.88;;;-144.67;100.00
47522;BME280;32291;52.010;4.446;2023-10-31T00:58:48;77129.47;;;-144.67;100.00
47522;BME280;32291;52.010;4.446;2023-10-31T00:59:50;77127.31;;;-144.67;100.00
47522;BME280;32291;52.010;4.446;2023-10-31T01:00:54;77129.47;;;-144.67;100.00
47522;BME280;32291;52.010;4.446;2023-10-31T01:02:03;77123.03;;;-144.67;100.00
47522;BME280;32291;52.010;4.446;2023-10-31T01:03:10;77127.31;;;-144.67;100.00
47522;BME280;32291;52.010;4.446;2023-10-31T01:04:12;77131.59;;;-144.67;100.00
47522;BME280;32291;52.010;4.446;2023-10-31T01:05:14;77135.88;;;-144.67;100.00
47522;BME280;32291;52.010;4.446;2023-10-31T01:06:15;77131.59;;;-144.67;100.00
47522;BME280;32291;52.010;4.446;2023-10-31T01:07:17;77135.88;;;-144.67;100.00
47522;BME280;32291;52.010;4.446;2023-10-31T01:08:18;77140.16;;;-144.67;100.00
47522;BME280;32291;52.010;4.446;2023-10-31T01:09:20;77140.16;;;-144.67;100.00
47522;BME280;32291;52.010;4.446;2023-10-31T01:10:21;77138.03;;;-144.67;100.00
47522;BME280;32291;52.010;4.446;2023-10-31T01:11:23;77135.88;;;-144.67;100.00
47522;BME280;32291;52.010;4.446;2023-10-31T01:12:25;77142.28;;;-144.67;100.00
47522;BME280;32291;52.010;4.446;2023-10-31T01:13:29;77144.44;;;-144.67;100.00
47522;BME280;32291;52.010;4.446;2023-10-31T01:14:31;77144.44;;;-144.67;100.00
47522;BME280;32291;52.010;4.446;2023-10-31T01:15:33;77148.72;;;-144.67;100.00
47522;BME280;32291;52.010;4.446;2023-10-31T01:16:34;77142.28;;;-144.67;100.00
47522;BME280;32291;52.010;4.446;2023-10-31T01:17:35;77146.56;;;-144.67;100.00
47522;BME280;32291;52.010;4.446;2023-10-31T01:18:37;77148.72;;;-144.67;100.00
47522;BME280;32291;52.010;4.446;2023-10-31T01:19:38;77142.28;;;-144.67;100.00
47522;BME280;32291;52.010;4.446;2023-10-31T01:20:40;77150.84;;;-144.67;100.00
47522;BME280;32291;52.010;4.446;2023-10-31T01:21:41;77157.28;;;-144.67;100.00
47522;BME280;32291;52.010;4.446;2023-10-31T01:22:43;77155.13;;;-144.67;100.00
47522;BME280;32291;52.010;4.446;2023-10-31T01:23:44;77157.28;;;-144.67;100.00
47522;BME280;32291;52.010;4.446;2023-10-31T01:24:46;77155.13;;;-144.67;100.00
47522;BME280;32291;52.010;4.446;2023-10-31T01:25:47;77150.84;;;-144.67;100.00
47522;BME280;32291;52.010;4.446;2023-10-31T01:26:49;77153.00;;;-144.67;100.00
47522;BME280;32291;52.010;4.446;2023-10-31T01:27:51;77150.84;;;-144.67;100.00
47522;BME280;32291;52.010;4.446;2023-10-31T01:28:52;77161.56;;;-144.67;100.00
47522;BME280;32291;52.010;4.446;2023-10-31T01:29:54;77159.41;;;-144.67;100.00
47522;BME280;32291;52.010;4.446;2023-10-31T01:30:55;77159.41;;;-144.67;100.00
47522;BME280;32291;52.010;4.446;2023-10-31T01:31:57;77157.28;;;-144.67;100.00
47522;BME280;32291;52.010;4.446;2023-10-31T01:32:58;77157.28;;;-144.67;100.00
47522;BME280;32291;52.010;4.446;2023-10-31T01:34:00;77159.41;;;-144.67;100.00
47522;BME280;32291;52.010;4.446;2023-10-31T01:35:05;77161.56;;;-144.67;100.00
47522;BME280;32291;52.010;4.446;2023-10-31T01:36:07;77150.84;;;-144.67;100.00
47522;BME280;32291;52.010;4.446;2023-10-31T01:37:09;77153.00;;;-144.67;100.00
47522;BME280;32291;52.010;4.446;2023-10-31T01:38:10;77157.28;;;-144.67;100.00
47522;BME280;32291;52.010;4.446;2023-10-31T01:39:12;77161.56;;;-144.67;100.00
47522;BME280;32291;52.010;4.446;2023-10-31T01:40:14;77170.13;;;-144.67;100.00
47522;BME280;32291;52.010;4.446;2023-10-31T01:41:15;77165.84;;;-144.67;100.00
47522;BME280;32291;52.010;4.446;2023-10-31T01:42:17;77159.41;;;-144.67;100.00
47522;BME280;32291;52.010;4.446;2023-10-31T01:43:33;77161.56;;;-144.67;100.00
47522;BME280;32291;52.010;4.446;2023-10-31T01:44:35;77167.97;;;-144.67;100.00
47522;BME280;32291;52.010;4.446;2023-10-31T01:45:36;77161.56;;;-144.67;100.00
47522;BME280;32291;52.010;4.446;2023-10-31T01:46:38;77167.97;;;-144.67;100.00
47522;BME280;32291;52.010;4.446;2023-10-31T01:47:39;77170.13;;;-144.67;100.00
47522;BME280;32291;52.010;4.446;2023-10-31T01:48:42;77174.41;;;-144.67;100.00
47522;BME280;32291;52.010;4.446;2023-10-31T01:49:44;77174.41;;;-144.67;100.00
47522;BME280;32291;52.010;4.446;2023-10-31T01:50:45;77167.97;;;-144.67;100.00
47522;BME280;32291;52.010;4.446;2023-10-31T01:51:48;77178.69;;;-144.67;100.00
47522;BME280;32291;52.010;4.446;2023-10-31T01:52:50;77178.69;;;-144.67;100.00
47522;BME280;32291;52.010;4.446;2023-10-31T01:53:53;77180.81;;;-144.67;100.00
47522;BME280;32291;52.010;4.446;2023-10-31T01:54:55;77182.97;;;-144.67;100.00
47522;BME280;32291;52.010;4.446;2023-10-31T01:55:58;77187.25;;;-144.67;100.00
47522;BME280;32291;52.010;4.446;2023-10-31T01:57:05;77178.69;;;-144.67;100.00
47522;BME280;32291;52.010;4.446;2023-10-31T01:58:07;77178.69;;;-144.67;100.00
47522;BME280;32291;52.010;4.446;2023-10-31T01:59:09;77180.81;;;-144.67;100.00
47522;BME280;32291;52.010;4.446;2023-10-31T02:00:13;77191.53;;;-144.67;100.00
47522;BME280;32291;52.010;4.446;2023-10-31T02:01:16;77189.38;;;-144.67;100.00
47522;BME280;32291;52.010;4.446;2023-10-31T02:02:20;77193.66;;;-144.67;100.00
47522;BME280;32291;52.010;4.446;2023-10-31T02:03:23;77200.09;;;-144.67;100.00
47522;BME280;32291;52.010;4.446;2023-10-31T02:04:25;77200.09;;;-144.67;100.00
47522;BME280;32291;52.010;4.446;2023-10-31T02:05:27;77204.38;;;-144.67;100.00
47522;BME280;32291;52.010;4.446;2023-10-31T02:06:29;77208.66;;;-144.67;100.00
47522;BME280;32291;52.010;4.446;2023-10-31T02:07:31;77212.94;;;-144.67;100.00
47522;BME280;32291;52.010;4.446;2023-10-31T02:08:33;77204.38;;;-144.67;100.00
47522;BME280;32291;52.010;4.446;2023-10-31T02:09:35;77206.50;;;-144.67;100.00
47522;BME280;32291;52.010;4.446;2023-10-31T02:10:37;77212.94;;;-144.67;100.00
47522;BME280;32291;52.010;4.446;2023-10-31T02:11:38;77223.63;;;-144.67;100.00
47522;BME280;32291;52.010;4.446;2023-10-31T02:12:39;77219.34;;;-144.67;100.00
47522;BME280;32291;52.010;4.446;2023-10-31T02:13:41;77221.50;;;-144.67;100.00
47522;BME280;32291;52.010;4.446;2023-10-31T02:14:43;77225.78;;;-144.67;100.00
47522;BME280;32291;52.010;4.446;2023-10-31T02:15:46;77221.50;;;-144.67;100.00
47522;BME280;32291;52.010;4.446;2023-10-31T02:16:48;77210.78;;;-144.67;100.00
47522;BME280;32291;52.010;4.446;2023-10-31T02:17:49;77219.34;;;-144.67;100.00
47522;BME280;32291;52.010;4.446;2023-10-31T02:18:51;77212.94;;;-144.67;100.00
47522;BME280;32291;52.010;4.446;2023-10-31T02:19:53;77221.50;;;-144.67;100.00
47522;BME280;32291;52.010;4.446;2023-10-31T02:20:54;77217.22;;;-144.67;100.00
47522;BME280;32291;52.010;4.446;2023-10-31T02:21:56;77210.78;;;-144.67;100.00
47522;BME280;32291;52.010;4.446;2023-10-31T02:22:58;77208.66;;;-144.67;100.00
47522;BME280;32291;52.010;4.446;2023-10-31T02:24:02;77215.06;;;-144.67;100.00
47522;BME280;32291;52.010;4.446;2023-10-31T02:25:16;77210.78;;;-144.67;100.00
47522;BME280;32291;52.010;4.446;2023-10-31T02:26:19;77215.06;;;-144.67;100.00
47522;BME280;32291;52.010;4.446;2023-10-31T02:27:20;77217.22;;;-144.67;100.00
47522;BME280;32291;52.010;4.446;2023-10-31T02:28:22;77221.50;;;-144.67;100.00
47522;BME280;32291;52.010;4.446;2023-10-31T02:29:23;77217.22;;;-144.67;100.00
47522;BME280;32291;52.010;4.446;2023-10-31T02:30:26;77212.94;;;-144.67;100.00
47522;BME280;32291;52.010;4.446;2023-10-31T02:31:28;77208.66;;;-144.67;100.00
47522;BME280;32291;52.010;4.446;2023-10-31T02:32:30;77215.06;;;-144.67;100.00
47522;BME280;32291;52.010;4.446;2023-10-31T02:33:32;77217.22;;;-144.67;100.00
47522;BME280;32291;52.010;4.446;2023-10-31T02:34:33;77208.66;;;-144.67;100.00
47522;BME280;32291;52.010;4.446;2023-10-31T02:35:35;77219.34;;;-144.67;100.00
47522;BME280;32291;52.010;4.446;2023-10-31T02:36:37;77208.66;;;-144.67;100.00
47522;BME280;32291;52.010;4.446;2023-10-31T02:37:38;77208.66;;;-144.67;100.00
47522;BME280;32291;52.010;4.446;2023-10-31T02:38:40;77206.50;;;-144.67;100.00
47522;BME280;32291;52.010;4.446;2023-10-31T02:39:42;77204.38;;;-144.67;100.00
47522;BME280;32291;52.010;4.446;2023-10-31T02:40:43;77212.94;;;-144.67;100.00
47522;BME280;32291;52.010;4.446;2023-10-31T02:41:45;77204.38;;;-144.67;100.00
47522;BME280;32291;52.010;4.446;2023-10-31T02:42:46;77206.50;;;-144.67;100.00
47522;BME280;32291;52.010;4.446;2023-10-31T02:43:48;77215.06;;;-144.67;100.00
47522;BME280;32291;52.010;4.446;2023-10-31T02:44:50;77212.94;;;-144.67;100.00
47522;BME280;32291;52.010;4.446;2023-10-31T02:45:51;77225.78;;;-144.67;100.00
47522;BME280;32291;52.010;4.446;2023-10-31T02:46:53;77234.31;;;-144.67;100.00
47522;BME280;32291;52.010;4.446;2023-10-31T02:47:55;77225.78;;;-144.67;100.00
47522;BME280;32291;52.010;4.446;2023-10-31T02:48:57;77225.78;;;-144.67;100.00
47522;BME280;32291;52.010;4.446;2023-10-31T02:49:58;77232.19;;;-144.67;100.00
47522;BME280;32291;52.010;4.446;2023-10-31T02:50:59;77230.06;;;-144.67;100.00
47522;BME280;32291;52.010;4.446;2023-10-31T02:52:01;77240.75;;;-144.67;100.00
47522;BME280;32291;52.010;4.446;2023-10-31T02:53:08;77234.31;;;-144.67;100.00
47522;BME280;32291;52.010;4.446;2023-10-31T02:54:09;77245.03;;;-144.67;100.00
47522;BME280;32291;52.010;4.446;2023-10-31T02:55:11;77242.88;;;-144.67;100.00
47522;BME280;32291;52.010;4.446;2023-10-31T02:56:13;77249.31;;;-144.67;100.00
47522;BME280;32291;52.010;4.446;2023-10-31T02:57:16;77245.03;;;-144.67;100.00
47522;BME280;32291;52.010;4.446;2023-10-31T02:58:18;77242.88;;;-144.67;100.00
47522;BME280;32291;52.010;4.446;2023-10-31T02:59:22;77247.16;;;-144.67;100.00
47522;BME280;32291;52.010;4.446;2023-10-31T03:00:24;77238.63;;;-144.67;100.00
47522;BME280;32291;52.010;4.446;2023-10-31T03:01:29;77245.03;;;-144.67;100.00
47522;BME280;32291;52.010;4.446;2023-10-31T03:02:30;77242.88;;;-144.67;100.00
47522;BME280;32291;52.010;4.446;2023-10-31T03:03:32;77242.88;;;-144.67;100.00
47522;BME280;32291;52.010;4.446;2023-10-31T03:04:34;77240.75;;;-144.67;100.00
47522;BME280;32291;52.010;4.446;2023-10-31T03:05:35;77247.16;;;-144.67;100.00
47522;BME280;32291;52.010;4.446;2023-10-31T03:06:37;77242.88;;;-144.67;100.00
47522;BME280;32291;52.010;4.446;2023-10-31T03:07:39;77247.16;;;-144.67;100.00
47522;BME280;32291;52.010;4.446;2023-10-31T03:08:40;77253.59;;;-144.67;100.00
47522;BME280;32291;52.010;4.446;2023-10-31T03:09:42;77262.16;;;-144.67;100.00
47522;BME280;32291;52.010;4.446;2023-10-31T03:10:44;77268.56;;;-144.67;100.00
47522;BME280;32291;52.010;4.446;2023-10-31T03:11:45;77275.00;;;-144.67;100.00
47522;BME280;32291;52.010;4.446;2023-10-31T03:12:47;77277.13;;;-144.67;100.00
47522;BME280;32291;52.010;4.446;2023-10-31T03:13:50;77287.84;;;-144.67;100.00
47522;BME280;32291;52.010;4.446;2023-10-31T03:14:52;77292.13;;;-144.67;100.00
47522;BME280;32291;52.010;4.446;2023-10-31T03:15:54;77289.97;;;-144.67;100.00
47522;BME280;32291;52.010;4.446;2023-10-31T03:16:55;77298.53;;;-144.67;100.00
47522;BME280;32291;52.010;4.446;2023-10-31T03:17:57;77302.81;;;-144.67;100.00
47522;BME280;32291;52.010;4.446;2023-10-31T03:18:58;77307.09;;;-144.67;100.00
47522;BME280;32291;52.010;4.446;2023-10-31T03:20:00;77307.09;;;-144.67;100.00
47522;BME280;32291;52.010;4.446;2023-10-31T03:21:01;77298.53;;;-144.67;100.00
47522;BME280;32291;52.010;4.446;2023-10-31T03:22:03;77311.38;;;-144.67;100.00
47522;BME280;32291;52.010;4.446;2023-10-31T03:23:04;77309.25;;;-144.67;100.00
47522;BME280;32291;52.010;4.446;2023-10-31T03:24:06;77307.09;;;-144.67;100.00
47522;BME280;32291;52.010;4.446;2023-10-31T03:25:08;77307.09;;;-144.67;100.00
47522;BME280;32291;52.010;4.446;2023-10-31T03:26:09;77302.81;;;-144.67;100.00
47522;BME280;32291;52.010;4.446;2023-10-31T03:27:11;77302.81;;;-144.67;100.00
47522;BME280;32291;52.010;4.446;2023-10-31T03:28:20;77315.66;;;-144.67;100.00
47522;BME280;32291;52.010;4.446;2023-10-31T03:29:25;77307.09;;;-144.67;100.00
47522;BME280;32291;52.010;4.446;2023-10-31T03:30:26;77307.09;;;-144.67;100.00
47522;BME280;32291;52.010;4.446;2023-10-31T03:31:28;77302.81;;;-144.67;100.00
47522;BME280;32291;52.010;4.446;2023-10-31T03:32:29;77307.09;;;-144.67;100.00
47522;BME280;32291;52.010;4.446;2023-10-31T03:33:31;77313.53;;;-144.67;100.00
47522;BME280;32291;52.010;4.446;2023-10-31T03:34:33;77311.38;;;-144.67;100.00
47522;BME280;32291;52.010;4.446;2023-10-31T03:35:35;77313.53;;;-144.67;100.00
47522;BME280;32291;52.010;4.446;2023-10-31T03:36:36;77315.66;;;-144.67;100.00
47522;BME280;32291;52.010;4.446;2023-10-31T03:37:38;77307.09;;;-144.67;100.00
47522;BME280;32291;52.010;4.446;2023-10-31T03:38:43;77307.09;;;-144.67;100.00
47522;BME280;32291;52.010;4.446;2023-10-31T03:39:44;77307.09;;;-144.67;100.00
47522;BME280;32291;52.010;4.446;2023-10-31T03:40:46;77304.97;;;-144.67;100.00
47522;BME280;32291;52.010;4.446;2023-10-31T03:41:48;77298.53;;;-144.67;100.00
47522;BME280;32291;52.010;4.446;2023-10-31T03:42:49;77307.09;;;-144.67;100.00
47522;BME280;32291;52.010;4.446;2023-10-31T03:43:51;77302.81;;;-144.67;100.00
47522;BME280;32291;52.010;4.446;2023-10-31T03:44:52;77304.97;;;-144.67;100.00
47522;BME280;32291;52.010;4.446;2023-10-31T03:45:54;77307.09;;;-144.67;100.00
47522;BME280;32291;52.010;4.446;2023-10-31T03:46:56;77307.09;;;-144.67;100.00
47522;BME280;32291;52.010;4.446;2023-10-31T03:47:58;77304.97;;;-144.67;100.00
47522;BME280;32291;52.010;4.446;2023-10-31T03:48:59;77307.09;;;-144.67;100.00
47522;BME280;32291;52.010;4.446;2023-10-31T03:50:01;77307.09;;;-144.67;100.00
47522;BME280;32291;52.010;4.446;2023-10-31T03:51:03;77307.09;;;-144.67;100.00
47522;BME280;32291;52.010;4.446;2023-10-31T03:52:05;77307.09;;;-144.67;100.00
47522;BME280;32291;52.010;4.446;2023-10-31T03:53:06;77302.81;;;-144.67;100.00
47522;BME280;32291;52.010;4.446;2023-10-31T03:54:08;77307.09;;;-144.67;100.00
47522;BME280;32291;52.010;4.446;2023-10-31T03:55:09;77315.66;;;-144.67;100.00
47522;BME280;32291;52.010;4.446;2023-10-31T03:56:12;77315.66;;;-144.67;100.00
47522;BME280;32291;52.010;4.446;2023-10-31T03:57:13;77307.09;;;-144.67;100.00
47522;BME280;32291;52.010;4.446;2023-10-31T03:58:15;77307.09;;;-144.67;100.00
47522;BME280;32291;52.010;4.446;2023-10-31T03:59:16;77311.38;;;-144.67;100.00
47522;BME280;32291;52.010;4.446;2023-10-31T04:00:18;77319.94;;;-144.67;100.00
47522;BME280;32291;52.010;4.446;2023-10-31T04:01:20;77304.97;;;-144.67;100.00
47522;BME280;32291;52.010;4.446;2023-10-31T04:02:21;77307.09;;;-144.67;100.00
47522;BME280;32291;52.010;4.446;2023-10-31T04:03:23;77317.81;;;-144.67;100.00
47522;BME280;32291;52.010;4.446;2023-10-31T04:04:25;77313.53;;;-144.67;100.00
47522;BME280;32291;52.010;4.446;2023-10-31T04:05:26;77313.53;;;-144.67;100.00
47522;BME280;32291;52.010;4.446;2023-10-31T04:06:28;77311.38;;;-144.67;100.00
47522;BME280;32291;52.010;4.446;2023-10-31T04:07:29;77302.81;;;-144.67;100.00
47522;BME280;32291;52.010;4.446;2023-10-31T04:08:31;77304.97;;;-144.67;100.00
47522;BME280;32291;52.010;4.446;2023-10-31T04:09:35;77311.38;;;-144.67;100.00
47522;BME280;32291;52.010;4.446;2023-10-31T04:10:37;77311.38;;;-144.67;100.00
47522;BME280;32291;52.010;4.446;2023-10-31T04:11:38;77307.09;;;-144.67;100.00
47522;BME280;32291;52.010;4.446;2023-10-31T04:12:41;77304.97;;;-144.67;100.00
47522;BME280;32291;52.010;4.446;2023-10-31T04:13:43;77313.53;;;-144.67;100.00
47522;BME280;32291;52.010;4.446;2023-10-31T04:14:47;77311.38;;;-144.67;100.00
47522;BME280;32291;52.010;4.446;2023-10-31T04:15:49;77317.81;;;-144.67;100.00
47522;BME280;32291;52.010;4.446;2023-10-31T04:16:50;77319.94;;;-144.67;100.00
47522;BME280;32291;52.010;4.446;2023-10-31T04:17:52;77319.94;;;-144.67;100.00
47522;BME280;32291;52.010;4.446;2023-10-31T04:18:53;77324.22;;;-144.67;100.00
47522;BME280;32291;52.010;4.446;2023-10-31T04:19:55;77324.22;;;-144.67;100.00
47522;BME280;32291;52.010;4.446;2023-10-31T04:20:56;77328.50;;;-144.67;100.00
47522;BME280;32291;52.010;4.446;2023-10-31T04:21:58;77326.38;;;-144.67;100.00
47522;BME280;32291;52.010;4.446;2023-10-31T04:22:59;77330.66;;;-144.67;100.00
47522;BME280;32291;52.010;4.446;2023-10-31T04:24:01;77334.94;;;-144.67;100.00
47522;BME280;32291;52.010;4.446;2023-10-31T04:25:04;77332.78;;;-144.67;100.00
47522;BME280;32291;52.010;4.446;2023-10-31T04:26:06;77334.94;;;-144.67;100.00
47522;BME280;32291;52.010;4.446;2023-10-31T04:27:08;77345.63;;;-144.67;100.00
47522;BME280;32291;52.010;4.446;2023-10-31T04:28:24;77347.78;;;-144.67;100.00
47522;BME280;32291;52.010;4.446;2023-10-31T04:29:30;77352.06;;;-144.67;100.00
47522;BME280;32291;52.010;4.446;2023-10-31T04:30:31;77354.19;;;-144.67;100.00
47522;BME280;32291;52.010;4.446;2023-10-31T04:31:33;77358.47;;;-144.67;100.00
47522;BME280;32291;52.010;4.446;2023-10-31T04:32:34;77354.19;;;-144.67;100.00
47522;BME280;32291;52.010;4.446;2023-10-31T04:33:36;77349.91;;;-144.67;100.00
47522;BME280;32291;52.010;4.446;2023-10-31T04:34:37;77354.19;;;-144.67;100.00
47522;BME280;32291;52.010;4.446;2023-10-31T04:35:39;77362.75;;;-144.67;100.00
47522;BME280;32291;52.010;4.446;2023-10-31T04:36:41;77362.75;;;-144.67;100.00
47522;BME280;32291;52.010;4.446;2023-10-31T04:37:45;77358.47;;;-144.67;100.00
47522;BME280;32291;52.010;4.446;2023-10-31T04:38:46;77354.19;;;-144.67;100.00
47522;BME280;32291;52.010;4.446;2023-10-31T04:39:48;77354.19;;;-144.67;100.00
47522;BME280;32291;52.010;4.446;2023-10-31T04:40:49;77356.34;;;-144.67;100.00
47522;BME280;32291;52.010;4.446;2023-10-31T04:41:51;77352.06;;;-144.67;100.00
47522;BME280;32291;52.010;4.446;2023-10-31T04:42:53;77358.47;;;-144.67;100.00
47522;BME280;32291;52.010;4.446;2023-10-31T04:43:55;77358.47;;;-144.67;100.00
47522;BME280;32291;52.010;4.446;2023-10-31T04:44:57;77358.47;;;-144.67;100.00
47522;BME280;32291;52.010;4.446;2023-10-31T04:45:58;77358.47;;;-144.67;100.00
47522;BME280;32291;52.010;4.446;2023-10-31T04:47:00;77358.47;;;-144.67;100.00
47522;BME280;32291;52.010;4.446;2023-10-31T04:48:01;77367.03;;;-144.67;100.00
47522;BME280;32291;52.010;4.446;2023-10-31T04:49:03;77367.03;;;-144.67;100.00
47522;BME280;32291;52.010;4.446;2023-10-31T04:50:05;77362.75;;;-144.67;100.00
47522;BME280;32291;52.010;4.446;2023-10-31T04:51:06;77369.16;;;-144.67;100.00
47522;BME280;32291;52.010;4.446;2023-10-31T04:52:08;77362.75;;;-144.67;100.00
47522;BME280;32291;52.010;4.446;2023-10-31T04:53:09;77367.03;;;-144.67;100.00
47522;BME280;32291;52.010;4.446;2023-10-31T04:54:11;77371.31;;;-144.67;100.00
47522;BME280;32291;52.010;4.446;2023-10-31T04:55:15;77375.59;;;-144.67;100.00
47522;BME280;32291;52.010;4.446;2023-10-31T04:56:18;77375.59;;;-144.67;100.00
47522;BME280;32291;52.010;4.446;2023-10-31T04:57:20;77384.16;;;-144.67;100.00
47522;BME280;32291;52.010;4.446;2023-10-31T04:58:21;77390.56;;;-144.67;100.00
47522;BME280;32291;52.010;4.446;2023-10-31T04:59:23;77388.44;;;-144.67;100.00
47522;BME280;32291;52.010;4.446;2023-10-31T05:00:24;77388.44;;;-144.67;100.00
47522;BME280;32291;52.010;4.446;2023-10-31T05:01:26;77388.44;;;-144.67;100.00
47522;BME280;32291;52.010;4.446;2023-10-31T05:02:27;77388.44;;;-144.67;100.00
47522;BME280;32291;52.010;4.446;2023-10-31T05:03:29;77392.72;;;-144.67;100.00
47522;BME280;32291;52.010;4.446;2023-10-31T05:04:31;77392.72;;;-144.67;100.00
47522;BME280;32291;52.010;4.446;2023-10-31T05:05:32;77401.28;;;-144.67;100.00
47522;BME280;32291;52.010;4.446;2023-10-31T05:06:34;77401.28;;;-144.67;100.00
47522;BME280;32291;52.010;4.446;2023-10-31T05:07:35;77401.28;;;-144.67;100.00
47522;BME280;32291;52.010;4.446;2023-10-31T05:08:37;77401.28;;;-144.67;100.00
47522;BME280;32291;52.010;4.446;2023-10-31T05:09:40;77405.56;;;-144.67;100.00
47522;BME280;32291;52.010;4.446;2023-10-31T05:10:42;77403.41;;;-144.67;100.00
47522;BME280;32291;52.010;4.446;2023-10-31T05:11:44;77401.28;;;-144.67;100.00
47522;BME280;32291;52.010;4.446;2023-10-31T05:12:45;77399.13;;;-144.67;100.00
47522;BME280;32291;52.010;4.446;2023-10-31T05:13:47;77409.84;;;-144.67;100.00
47522;BME280;32291;52.010;4.446;2023-10-31T05:14:48;77405.56;;;-144.67;100.00
47522;BME280;32291;52.010;4.446;2023-10-31T05:15:50;77411.97;;;-144.67;100.00